Christina O — C6FN7 — position and weather

sailwx.info

Track history (hours):
 
Tides and Currents Weather Stations Pressure Air Temp Water Temp Dewpoint Dewpoint Depression Visibility Wind Speed Wind Dir Waves Ship Positions

Christina O

Operator: V Ships Leisure SAM

Last reported at 2014-Sep-14 03:33 UTC. Time now 2014-Sep-16 15:24 UTC.
Position N 55°46' W 006°58'.

Length 186 m; draft 6.1 m.

Type: Ship. MMSI: 308322000.

Date/timePositionNaut miles runAvg speedWind from/ knotsBaromVisibWave heightAir tempDewpointWater temp
2014-Sep-14 03:33N 55°46' W 006°58'1717.3
2014-Sep-14 02:33N 55°35' W 006°36'1616.1
2014-Sep-14 01:33N 55°26' W 006°12'4711.7
2014-Sep-13 21:34N 54°41' W 005°47'6 6.1
2014-Sep-13 20:33N 54°37' W 005°54'0 0.0
2014-Sep-13 19:22N 54°37' W 005°54'0 0.0
2014-Sep-13 17:04N 54°37' W 005°54'0 0.0
2014-Sep-13 16:19N 54°37' W 005°54'0 0.0
2014-Sep-13 14:28N 54°37' W 005°54'0 0.0
2014-Sep-13 13:10N 54°37' W 005°54'0 0.0
2014-Sep-13 09:28N 54°37' W 005°54'0 0.0
2014-Sep-13 08:28N 54°37' W 005°54'0 0.0
2014-Sep-13 07:05N 54°37' W 005°54'1 1.5
2014-Sep-13 06:30N 54°38' W 005°53'9 9.5
2014-Sep-13 05:34N 54°43' W 005°41'9 9.5
2014-Sep-13 04:33N 54°40' W 005°25'1211.5
2014-Sep-13 03:33N 54°29' W 005°19'1312.6
2014-Sep-13 02:33N 54°17' W 005°23'1812.9
2014-Sep-13 01:10N 53°60' W 005°34'812.5
2014-Sep-13 00:33N 53°53' W 005°38'1312.9
2014-Sep-12 23:33N 53°41' W 005°46'70 3.2
2014-Sep-12 01:32N 52°31' W 005°55'1212.5
2014-Sep-12 00:33N 52°19' W 005°57'1312.6
2014-Sep-11 23:33N 52°07' W 006°03'1514.5
2014-Sep-11 22:32N 52°00' W 006°25'1414.7
2014-Sep-11 21:34N 51°57' W 006°47'1414.2
2014-Sep-11 20:34N 51°53' W 007°09'1414.0
2014-Sep-11 19:33N 51°49' W 007°31'1413.9
2014-Sep-11 18:33N 51°46' W 007°53'1413.7
2014-Sep-11 17:33N 51°46' W 008°15'6 5.5
2014-Sep-11 16:32N 51°51' W 008°18'0 0.0
2014-Sep-11 15:32N 51°51' W 008°18'0 0.0
2014-Sep-11 14:32N 51°51' W 008°18'0 0.0
2014-Sep-11 13:32N 51°51' W 008°18'0 0.0
2014-Sep-11 12:32N 51°51' W 008°18'0 0.0
2014-Sep-11 11:32N 51°51' W 008°18'0 0.0
2014-Sep-11 10:32N 51°51' W 008°18'0 0.0
2014-Sep-11 09:29N 51°51' W 008°18'0 0.0
2014-Sep-11 08:32N 51°51' W 008°18'0 0.0
2014-Sep-11 07:32N 51°51' W 008°18'0 0.1
2014-Sep-11 06:33N 51°51' W 008°18'7 7.4
2014-Sep-11 05:34N 51°44' W 008°15'1313.2
2014-Sep-11 04:33N 51°33' W 008°02'1514.8
2014-Sep-11 03:34N 51°23' W 007°44'1414.5
2014-Sep-11 02:34N 51°14' W 007°27'1514.4
2014-Sep-11 01:30N 51°03' W 007°09'223 8.0
2014-Sep-09 21:33N 50°30' W 001°20'1413.7
2014-Sep-09 20:33N 50°35' W 001°00'1212.3
2014-Sep-09 19:34N 50°46' W 001°10'9 9.2
2014-Sep-09 18:33N 50°51' W 001°21'4 2.9
2014-Sep-09 17:12N 50°54' W 001°26'0 0.0
2014-Sep-09 15:33N 50°54' W 001°26'1 0.1
2014-Sep-09 05:16N 50°54' W 001°25'7 9.9
2014-Sep-09 04:33N 50°48' W 001°18'1212.1
2014-Sep-09 03:33N 50°43' W 001°00'1211.5
2014-Sep-09 02:34N 50°36' W 000°46'1312.8
2014-Sep-09 01:33N 50°33' W 000°26'1515.2
2014-Sep-09 00:33N 50°32' W 000°02'1414.5
2014-Sep-08 23:33N 50°35' E 000°20'1413.8
2014-Sep-08 22:33N 50°40' E 000°40'1414.1
2014-Sep-08 21:33N 50°48' E 000°58'1514.9
2014-Sep-08 20:32N 50°58' E 001°16'1716.8
2014-Sep-08 19:34N 51°09' E 001°36'1817.5
2014-Sep-08 18:33N 51°21' E 001°55'1513.7
2014-Sep-08 17:28N 51°21' E 002°19'1415.7
2014-Sep-08 16:33N 51°23' E 002°42'1514.9
2014-Sep-08 15:33N 51°24' E 003°06'5 4.9
2014-Sep-08 14:31N 51°21' E 003°12'0 0.0
2014-Sep-08 13:25N 51°21' E 003°12'0 0.0
2014-Sep-08 12:28N 51°21' E 003°12'0 0.0
2014-Sep-08 11:31N 51°21' E 003°12'0 0.0
2014-Sep-08 10:31N 51°21' E 003°12'0 0.0
2014-Sep-08 09:31N 51°21' E 003°12'0 0.0
2014-Sep-08 08:34N 51°21' E 003°12'0 0.0
2014-Sep-08 07:33N 51°21' E 003°12'0 0.0
2014-Sep-08 06:33N 51°21' E 003°12'0 0.0
2014-Sep-08 05:33N 51°21' E 003°12'0 0.0
2014-Sep-08 04:33N 51°21' E 003°12'0 0.0
2014-Sep-08 03:33N 51°21' E 003°12'0 0.0
2014-Sep-08 02:33N 51°21' E 003°12'0 0.0
2014-Sep-08 01:33N 51°21' E 003°12'0 0.0
2014-Sep-08 00:33N 51°21' E 003°12'0 0.0
2014-Sep-07 23:33N 51°21' E 003°12'0 0.0
2014-Sep-07 21:33N 51°21' E 003°12'1 0.7
2014-Sep-07 20:34N 51°21' E 003°12'7 7.1
2014-Sep-07 19:33N 51°25' E 003°22'1312.7
2014-Sep-07 18:34N 51°25' E 003°42'1212.0
2014-Sep-07 17:33N 51°25' E 004°02'1111.4
2014-Sep-07 16:34N 51°19' E 004°16'7 6.8
2014-Sep-07 15:31N 51°13' E 004°24'0 0.0
2014-Sep-07 14:31N 51°13' E 004°24'0 0.0
2014-Sep-07 13:31N 51°13' E 004°24'0 0.0
2014-Sep-07 12:31N 51°13' E 004°24'0 0.0
2014-Sep-07 11:31N 51°13' E 004°24'0 0.0
2014-Sep-07 10:31N 51°13' E 004°24'0 0.0
2014-Sep-07 09:31N 51°13' E 004°24'0 0.0
2014-Sep-07 08:31N 51°13' E 004°24'0 0.0
2014-Sep-07 07:31N 51°13' E 004°24'0 0.0
2014-Sep-07 06:31N 51°13' E 004°24'4 3.9
2014-Sep-07 05:34N 51°15' E 004°19'7 7.1
2014-Sep-07 04:33N 51°22' E 004°14'9 8.8
2014-Sep-07 03:33N 51°26' E 004°01'1110.5
2014-Sep-07 02:33N 51°22' E 003°46'1010.2
2014-Sep-07 01:33N 51°27' E 003°32'1413.6
2014-Sep-07 00:33N 51°39' E 003°20'2119.5
2014-Sep-06 23:28N 51°56' E 002°59'5 5.5
2014-Sep-06 22:31N 52°01' E 002°59'4313.3
2014-Sep-06 19:17N 52°30' E 003°51'1014.5
2014-Sep-06 18:33N 52°31' E 004°08'1313.5
2014-Sep-06 17:34N 52°28' E 004°30'3 2.7
2014-Sep-06 16:30N 52°28' E 004°34'0 0.0
2014-Sep-06 15:30N 52°28' E 004°34'0 0.0
2014-Sep-06 14:33N 52°28' E 004°34'0 0.0
2014-Sep-06 13:33N 52°28' E 004°34'0 0.0
2014-Sep-06 12:33N 52°28' E 004°34'0 0.0
2014-Sep-06 11:33N 52°28' E 004°34'0 0.0
2014-Sep-06 10:33N 52°28' E 004°34'0 0.0
2014-Sep-06 09:33N 52°28' E 004°34'0 0.0
2014-Sep-06 08:33N 52°28' E 004°34'0 0.0
2014-Sep-06 07:33N 52°28' E 004°34'0 0.0
2014-Sep-06 06:33N 52°28' E 004°34'0 0.2
2014-Sep-06 05:34N 52°28' E 004°34'9 8.7
2014-Sep-06 04:33N 52°29' E 004°20'1413.5
2014-Sep-06 03:32N 52°38' E 004°04'1716.8
2014-Sep-06 02:32N 52°55' E 003°60'1615.9
2014-Sep-06 01:32N 53°06' E 004°18'1515.1
2014-Sep-06 00:34N 53°19' E 004°29'1614.7
2014-Sep-05 23:30N 53°31' E 004°47'1516.2
2014-Sep-05 22:34N 53°36' E 005°11'1616.5
2014-Sep-05 21:34N 53°42' E 005°37'1616.2
2014-Sep-05 20:33N 53°47' E 006°03'5316.1
2014-Sep-05 17:15N 53°59' E 007°31'1116.1
2014-Sep-05 16:33N 54°01' E 007°50'1515.2
2014-Sep-05 15:34N 54°00' E 008°15'1616.2
2014-Sep-05 14:34N 53°54' E 008°41'1615.7
2014-Sep-05 13:33N 53°53' E 009°08'1 1.4
2014-Sep-05 12:33N 53°54' E 009°10'6 6.4
2014-Sep-05 11:33N 53°59' E 009°17'7 6.6
2014-Sep-05 10:33N 54°05' E 009°19'6 6.4
2014-Sep-05 09:33N 54°10' E 009°26'8 7.7
2014-Sep-05 08:28N 54°15' E 009°37'47 6.7
2014-Sep-05 01:27N 54°36' E 010°50'1011.1
2014-Sep-05 00:31N 54°36' E 011°08'1111.2
2014-Sep-04 23:33N 54°32' E 011°25'1111.0
2014-Sep-04 22:33N 54°27' E 011°42'1111.1
2014-Sep-04 21:33N 54°20' E 011°57'7 7.3
2014-Sep-04 20:33N 54°13' E 012°01'3 2.6
2014-Sep-04 19:33N 54°12' E 012°05'1 1.4
2014-Sep-04 18:31N 54°10' E 012°06'0 0.0
2014-Sep-04 17:25N 54°10' E 012°06'0 0.0
2014-Sep-04 16:10N 54°10' E 012°06'0 0.0
2014-Sep-04 15:25N 54°10' E 012°06'0 0.0
2014-Sep-04 14:31N 54°10' E 012°06'0 0.0
2014-Sep-04 13:28N 54°10' E 012°06'0 0.0
2014-Sep-04 12:31N 54°10' E 012°06'0 0.0
2014-Sep-04 10:13N 54°10' E 012°06'0 0.0
2014-Sep-04 09:30N 54°10' E 012°06'0 0.0
2014-Sep-04 08:04N 54°10' E 012°06'0 0.0
2014-Sep-04 07:28N 54°10' E 012°06'0 0.0
2014-Sep-04 06:31N 54°10' E 012°06'0 0.0
2014-Sep-04 05:31N 54°10' E 012°06'4 3.8
2014-Sep-04 04:33N 54°14' E 012°03'1211.9
2014-Sep-04 03:33N 54°26' E 012°00'  
Track history (hours):
 
Tides and Currents Weather Stations Pressure Air Temp Water Temp Dewpoint Dewpoint Depression Visibility Wind Speed Wind Dir Waves Ship Positions

Christina O

Operator: V Ships Leisure SAM

Last reported at 2014-Sep-14 03:33 UTC. Time now 2014-Sep-16 15:24 UTC.
Position N 55°46' W 006°58'.

Length 186 m; draft 6.1 m.

Type: Ship. MMSI: 308322000.

Date/timePositionNaut miles runAvg speedWind from/ knotsBaromVisibWave heightAir tempDewpointWater temp
2014-Sep-14 03:33N 55°46' W 006°58'1717.3
2014-Sep-14 02:33N 55°35' W 006°36'1616.1
2014-Sep-14 01:33N 55°26' W 006°12'4711.7
2014-Sep-13 21:34N 54°41' W 005°47'6 6.1
2014-Sep-13 20:33N 54°37' W 005°54'0 0.0
2014-Sep-13 19:22N 54°37' W 005°54'0 0.0
2014-Sep-13 17:04N 54°37' W 005°54'0 0.0
2014-Sep-13 16:19N 54°37' W 005°54'0 0.0
2014-Sep-13 14:28N 54°37' W 005°54'0 0.0
2014-Sep-13 13:10N 54°37' W 005°54'0 0.0
2014-Sep-13 09:28N 54°37' W 005°54'0 0.0
2014-Sep-13 08:28N 54°37' W 005°54'0 0.0
2014-Sep-13 07:05N 54°37' W 005°54'1 1.5
2014-Sep-13 06:30N 54°38' W 005°53'9 9.5
2014-Sep-13 05:34N 54°43' W 005°41'9 9.5
2014-Sep-13 04:33N 54°40' W 005°25'1211.5
2014-Sep-13 03:33N 54°29' W 005°19'1312.6
2014-Sep-13 02:33N 54°17' W 005°23'1812.9
2014-Sep-13 01:10N 53°60' W 005°34'812.5
2014-Sep-13 00:33N 53°53' W 005°38'1312.9
2014-Sep-12 23:33N 53°41' W 005°46'70 3.2
2014-Sep-12 01:32N 52°31' W 005°55'1212.5
2014-Sep-12 00:33N 52°19' W 005°57'1312.6
2014-Sep-11 23:33N 52°07' W 006°03'1514.5
2014-Sep-11 22:32N 52°00' W 006°25'1414.7
2014-Sep-11 21:34N 51°57' W 006°47'1414.2
2014-Sep-11 20:34N 51°53' W 007°09'1414.0
2014-Sep-11 19:33N 51°49' W 007°31'1413.9
2014-Sep-11 18:33N 51°46' W 007°53'1413.7
2014-Sep-11 17:33N 51°46' W 008°15'6 5.5
2014-Sep-11 16:32N 51°51' W 008°18'0 0.0
2014-Sep-11 15:32N 51°51' W 008°18'0 0.0
2014-Sep-11 14:32N 51°51' W 008°18'0 0.0
2014-Sep-11 13:32N 51°51' W 008°18'0 0.0
2014-Sep-11 12:32N 51°51' W 008°18'0 0.0
2014-Sep-11 11:32N 51°51' W 008°18'0 0.0
2014-Sep-11 10:32N 51°51' W 008°18'0 0.0
2014-Sep-11 09:29N 51°51' W 008°18'0 0.0
2014-Sep-11 08:32N 51°51' W 008°18'0 0.0
2014-Sep-11 07:32N 51°51' W 008°18'0 0.1
2014-Sep-11 06:33N 51°51' W 008°18'7 7.4
2014-Sep-11 05:34N 51°44' W 008°15'1313.2
2014-Sep-11 04:33N 51°33' W 008°02'1514.8
2014-Sep-11 03:34N 51°23' W 007°44'1414.5
2014-Sep-11 02:34N 51°14' W 007°27'1514.4
2014-Sep-11 01:30N 51°03' W 007°09'223 8.0
2014-Sep-09 21:33N 50°30' W 001°20'1413.7
2014-Sep-09 20:33N 50°35' W 001°00'1212.3
2014-Sep-09 19:34N 50°46' W 001°10'9 9.2
2014-Sep-09 18:33N 50°51' W 001°21'4 2.9
2014-Sep-09 17:12N 50°54' W 001°26'0 0.0
2014-Sep-09 15:33N 50°54' W 001°26'1 0.1
2014-Sep-09 05:16N 50°54' W 001°25'7 9.9
2014-Sep-09 04:33N 50°48' W 001°18'1212.1
2014-Sep-09 03:33N 50°43' W 001°00'1211.5
2014-Sep-09 02:34N 50°36' W 000°46'1312.8
2014-Sep-09 01:33N 50°33' W 000°26'1515.2
2014-Sep-09 00:33N 50°32' W 000°02'1414.5
2014-Sep-08 23:33N 50°35' E 000°20'1413.8
2014-Sep-08 22:33N 50°40' E 000°40'1414.1
2014-Sep-08 21:33N 50°48' E 000°58'1514.9
2014-Sep-08 20:32N 50°58' E 001°16'1716.8
2014-Sep-08 19:34N 51°09' E 001°36'1817.5
2014-Sep-08 18:33N 51°21' E 001°55'1513.7
2014-Sep-08 17:28N 51°21' E 002°19'1415.7
2014-Sep-08 16:33N 51°23' E 002°42'1514.9
2014-Sep-08 15:33N 51°24' E 003°06'5 4.9
2014-Sep-08 14:31N 51°21' E 003°12'0 0.0
2014-Sep-08 13:25N 51°21' E 003°12'0 0.0
2014-Sep-08 12:28N 51°21' E 003°12'0 0.0
2014-Sep-08 11:31N 51°21' E 003°12'0 0.0
2014-Sep-08 10:31N 51°21' E 003°12'0 0.0
2014-Sep-08 09:31N 51°21' E 003°12'0 0.0
2014-Sep-08 08:34N 51°21' E 003°12'0 0.0
2014-Sep-08 07:33N 51°21' E 003°12'0 0.0
2014-Sep-08 06:33N 51°21' E 003°12'0 0.0
2014-Sep-08 05:33N 51°21' E 003°12'0 0.0
2014-Sep-08 04:33N 51°21' E 003°12'0 0.0
2014-Sep-08 03:33N 51°21' E 003°12'0 0.0
2014-Sep-08 02:33N 51°21' E 003°12'0 0.0
2014-Sep-08 01:33N 51°21' E 003°12'0 0.0
2014-Sep-08 00:33N 51°21' E 003°12'0 0.0
2014-Sep-07 23:33N 51°21' E 003°12'0 0.0
2014-Sep-07 21:33N 51°21' E 003°12'1 0.7
2014-Sep-07 20:34N 51°21' E 003°12'7 7.1
2014-Sep-07 19:33N 51°25' E 003°22'1312.7
2014-Sep-07 18:34N 51°25' E 003°42'1212.0
2014-Sep-07 17:33N 51°25' E 004°02'1111.4
2014-Sep-07 16:34N 51°19' E 004°16'7 6.8
2014-Sep-07 15:31N 51°13' E 004°24'0 0.0
2014-Sep-07 14:31N 51°13' E 004°24'0 0.0
2014-Sep-07 13:31N 51°13' E 004°24'0 0.0
2014-Sep-07 12:31N 51°13' E 004°24'0 0.0
2014-Sep-07 11:31N 51°13' E 004°24'0 0.0
2014-Sep-07 10:31N 51°13' E 004°24'0 0.0
2014-Sep-07 09:31N 51°13' E 004°24'0 0.0
2014-Sep-07 08:31N 51°13' E 004°24'0 0.0
2014-Sep-07 07:31N 51°13' E 004°24'0 0.0
2014-Sep-07 06:31N 51°13' E 004°24'4 3.9
2014-Sep-07 05:34N 51°15' E 004°19'7 7.1
2014-Sep-07 04:33N 51°22' E 004°14'9 8.8
2014-Sep-07 03:33N 51°26' E 004°01'1110.5
2014-Sep-07 02:33N 51°22' E 003°46'1010.2
2014-Sep-07 01:33N 51°27' E 003°32'1413.6
2014-Sep-07 00:33N 51°39' E 003°20'2119.5
2014-Sep-06 23:28N 51°56' E 002°59'5 5.5
2014-Sep-06 22:31N 52°01' E 002°59'4313.3
2014-Sep-06 19:17N 52°30' E 003°51'1014.5
2014-Sep-06 18:33N 52°31' E 004°08'1313.5
2014-Sep-06 17:34N 52°28' E 004°30'3 2.7
2014-Sep-06 16:30N 52°28' E 004°34'0 0.0
2014-Sep-06 15:30N 52°28' E 004°34'0 0.0
2014-Sep-06 14:33N 52°28' E 004°34'0 0.0
2014-Sep-06 13:33N 52°28' E 004°34'0 0.0
2014-Sep-06 12:33N 52°28' E 004°34'0 0.0
2014-Sep-06 11:33N 52°28' E 004°34'0 0.0
2014-Sep-06 10:33N 52°28' E 004°34'0 0.0
2014-Sep-06 09:33N 52°28' E 004°34'0 0.0
2014-Sep-06 08:33N 52°28' E 004°34'0 0.0
2014-Sep-06 07:33N 52°28' E 004°34'0 0.0
2014-Sep-06 06:33N 52°28' E 004°34'0 0.2
2014-Sep-06 05:34N 52°28' E 004°34'9 8.7
2014-Sep-06 04:33N 52°29' E 004°20'1413.5
2014-Sep-06 03:32N 52°38' E 004°04'1716.8
2014-Sep-06 02:32N 52°55' E 003°60'1615.9
2014-Sep-06 01:32N 53°06' E 004°18'1515.1
2014-Sep-06 00:34N 53°19' E 004°29'1614.7
2014-Sep-05 23:30N 53°31' E 004°47'1516.2
2014-Sep-05 22:34N 53°36' E 005°11'1616.5
2014-Sep-05 21:34N 53°42' E 005°37'1616.2
2014-Sep-05 20:33N 53°47' E 006°03'5316.1
2014-Sep-05 17:15N 53°59' E 007°31'1116.1
2014-Sep-05 16:33N 54°01' E 007°50'1515.2
2014-Sep-05 15:34N 54°00' E 008°15'1616.2
2014-Sep-05 14:34N 53°54' E 008°41'1615.7
2014-Sep-05 13:33N 53°53' E 009°08'1 1.4
2014-Sep-05 12:33N 53°54' E 009°10'6 6.4
2014-Sep-05 11:33N 53°59' E 009°17'7 6.6
2014-Sep-05 10:33N 54°05' E 009°19'6 6.4
2014-Sep-05 09:33N 54°10' E 009°26'8 7.7
2014-Sep-05 08:28N 54°15' E 009°37'47 6.7
2014-Sep-05 01:27N 54°36' E 010°50'1011.1
2014-Sep-05 00:31N 54°36' E 011°08'1111.2
2014-Sep-04 23:33N 54°32' E 011°25'1111.0
2014-Sep-04 22:33N 54°27' E 011°42'1111.1
2014-Sep-04 21:33N 54°20' E 011°57'7 7.3
2014-Sep-04 20:33N 54°13' E 012°01'3 2.6
2014-Sep-04 19:33N 54°12' E 012°05'1 1.4
2014-Sep-04 18:31N 54°10' E 012°06'0 0.0
2014-Sep-04 17:25N 54°10' E 012°06'0 0.0
2014-Sep-04 16:10N 54°10' E 012°06'0 0.0
2014-Sep-04 15:25N 54°10' E 012°06'0 0.0
2014-Sep-04 14:31N 54°10' E 012°06'0 0.0
2014-Sep-04 13:28N 54°10' E 012°06'0 0.0
2014-Sep-04 12:31N 54°10' E 012°06'0 0.0
2014-Sep-04 10:13N 54°10' E 012°06'0 0.0
2014-Sep-04 09:30N 54°10' E 012°06'0 0.0
2014-Sep-04 08:04N 54°10' E 012°06'0 0.0
2014-Sep-04 07:28N 54°10' E 012°06'0 0.0
2014-Sep-04 06:31N 54°10' E 012°06'0 0.0
2014-Sep-04 05:31N 54°10' E 012°06'4 3.8
2014-Sep-04 04:33N 54°14' E 012°03'1211.9
2014-Sep-04 03:33N 54°26' E 012°00'  

Dump ship's entire track history